KSFB/SFB METAR and TAF weather

Enter ICAO airport designator
Station Type Date Time Source
KSFB METAR 2022/01/19 19:53 UTC NOAA

KSFB 191953Z 10006KT 10SM BKN055 24/11 A3017 RMK AO2 SLP217 T02390111


Station Type Date Time Source
KSFB Decoded METAR 2022/01/19 19:53 UTC NOAA

ORLANDO SANFORD AIRPORT, FL, United States (KSFB) 28-47N 081-15W
Jan 19, 2022 - 02:53 PM EST / 2022.01.19 1953 UTC
Wind: from the E (100 degrees) at 7 MPH (6 KT):0
Visibility: 10 mile(s):0
Sky conditions: mostly cloudy
Temperature: 75.0 F (23.9 C)
Dew Point: 52.0 F (11.1 C)
Relative Humidity: 44%
Pressure (altimeter): 30.17 in. Hg (1021 hPa)
ob: KSFB 191953Z 10006KT 10SM BKN055 24/11 A3017 RMK AO2 SLP217 T02390111
cycle: 20

Station Type Date Time Source
KSFB TAF 2022/01/19 18:27 UTC NOAA

TAF KSFB 191725Z 1918/2018 11008KT P6SM SCT045
FM200000 VRB04KT P6SM FEW050 FEW250
FM200900 VRB02KT 6SM BR SKC
FM201500 24008KT P6SM FEW030

Example: see airport list